Date,TemperatureHighF,TemperatureAvgF,TemperatureLowF,DewpointHighF,DewpointAvgF,DewpointLowF,HumidityHigh,HumidityAvg,HumidityLow,PressureMaxIn,PressureMinIn,WindSpeedMaxMPH,WindSpeedAvgMPH,GustSpeedMaxMPH,PrecipitationSumIn
2013-1-1,42,32,19,-100,-100,-100,0,0,100,0.00,40.00,3,1,6,0.00
2013-1-2,43,30,21,-100,-100,-100,0,0,100,0.00,40.00,6,3,6,0.00
2013-1-3,32,28,26,-100,-100,-100,0,0,100,0.00,40.00,6,3,8,0.00
2013-1-4,30,28,23,-100,-100,-100,0,0,100,0.00,40.00,4,-44,6,0.00
2013-1-5,28,23,15,-100,-100,-100,0,0,100,0.00,40.00,4,1,5,0.00
2013-1-6,41,27,14,-100,-100,-100,0,0,100,0.00,40.00,4,1,4,0.00
2013-1-7,50,41,32,-100,-100,-100,0,0,100,0.00,40.00,8,3,8,0.00
2013-1-8,54,42,34,-100,-100,-100,0,0,100,0.00,40.00,4,2,7,0.00
2013-1-9,54,39,29,-100,-100,-100,0,0,100,0.00,40.00,4,2,6,0.00
2013-1-10,54,40,25,-100,-100,-100,0,0,100,0.00,40.00,5,2,6,0.00
2013-1-11,47,40,34,-100,-100,-100,0,0,100,0.00,40.00,10,4,11,0.00
2013-1-12,40,29,22,-100,-100,-100,0,0,100,0.00,40.00,7,2,13,0.00
2013-1-13,38,25,10,-100,-100,-100,0,0,100,0.00,40.00,4,2,10,0.00
2013-1-14,39,29,23,-100,-100,-100,0,0,100,0.00,40.00,6,3,7,0.00
2013-1-15,33,24,18,-100,-100,-100,0,0,100,0.00,40.00,5,2,8,0.00
2013-1-16,43,30,14,-100,-100,-100,0,0,100,0.00,40.00,5,2,6,0.00
2013-1-17,52,36,18,-100,-100,-100,0,0,100,0.00,40.00,6,2,8,0.00
2013-1-18,55,39,26,-100,-100,-100,0,0,100,0.00,40.00,6,2,7,0.00
2013-1-19,58,39,21,-100,-100,-100,0,0,100,0.00,40.00,3,1,4,0.00
2013-1-20,61,38,21,-100,-100,-100,0,0,100,0.00,40.00,4,1,6,0.00
2013-1-21,60,45,32,-100,-100,-100,0,0,100,0.00,40.00,5,2,6,0.00
2013-1-22,63,46,29,-100,-100,-100,0,0,100,0.00,40.00,4,2,6,0.00
2013-1-23,67,48,27,-100,-100,-100,0,0,100,0.00,40.00,4,1,7,0.00
2013-1-24,69,50,34,-100,-100,-100,0,0,100,0.00,40.00,6,1,6,0.00
2013-1-25,62,53,43,-100,-100,-100,0,0,100,0.00,40.00,5,2,7,0.00
2013-1-26,62,52,45,-100,-100,-100,0,0,100,0.00,40.00,6,2,7,0.00
2013-1-27,61,51,43,-100,-100,-100,0,0,100,0.00,40.00,5,2,9,0.00
2013-1-28,62,45,33,-100,-100,-100,0,0,100,0.00,40.00,8,3,12,0.00
2013-1-29,41,36,32,-100,-100,-100,0,0,100,0.00,40.00,12,5,17,0.00
2013-1-30,47,36,23,-100,-100,-100,0,0,100,0.00,40.00,6,2,9,0.00
2013-1-31,54,41,22,-100,-100,-100,0,0,100,0.00,40.00,5,2,7,0.00
2013-2-1,59,42,25,-100,-100,-100,0,0,100,0.00,40.00,4,1,6,0.00
2013-2-2,62,44,25,-100,-100,-100,0,0,100,0.00,40.00,7,1,7,0.00
2013-2-3,60,48,36,-100,-100,-100,0,0,100,0.00,40.00,7,2,7,0.00
2013-2-4,62,50,40,-100,-100,-100,0,0,100,0.00,40.00,5,2,8,0.00
2013-2-5,64,46,35,-100,-100,-100,0,0,100,0.00,40.00,4,2,7,0.00
2013-2-6,62,45,33,-100,-100,-100,0,0,100,0.00,40.00,5,3,7,0.00
2013-2-7,61,48,36,-100,-100,-100,0,0,100,0.00,40.00,6,2,6,0.00
2013-2-8,65,51,40,-100,-100,-100,0,0,100,0.00,40.00,8,4,11,0.00
2013-2-9,57,44,32,-100,-100,-100,0,0,100,0.00,40.00,16,5,17,0.00
2013-2-10,51,37,26,-100,-100,-100,0,0,100,0.00,40.00,4,2,8,0.00
2013-2-11,56,40,25,-100,-100,-100,0,0,100,0.00,40.00,8,2,8,0.00
2013-2-12,46,38,28,-100,-100,-100,0,0,100,0.00,40.00,6,2,8,0.00
2013-2-13,51,33,20,-100,-100,-100,0,0,100,0.00,40.00,5,2,7,0.00
2013-2-14,56,37,21,-100,-100,-100,0,0,100,0.00,40.00,4,1,8,0.00
2013-2-15,53,42,34,-100,-100,-100,0,0,100,0.00,40.00,3,2,6,0.00
2013-2-16,59,43,22,-100,-100,-100,0,0,100,0.00,40.00,5,2,6,0.00
2013-2-17,65,49,21,-100,-100,-100,0,0,100,0.00,40.00,6,2,9,0.00
2013-2-18,62,51,40,-100,-100,-100,0,0,100,0.00,40.00,6,2,10,0.00
2013-2-19,53,43,35,-100,-100,-100,0,0,100,0.00,40.00,5,2,6,0.00
2013-2-20,55,44,32,-100,-100,-100,0,0,100,0.00,40.00,8,3,12,0.00
2013-2-21,45,36,29,-100,-100,-100,0,0,100,0.00,40.00,8,3,10,0.00
2013-2-22,51,39,25,-100,-100,-100,0,0,100,0.00,40.00,4,2,9,0.00
2013-2-23,58,41,24,-100,-100,-100,0,0,100,0.00,40.00,4,2,7,0.00
2013-2-24,56,39,28,-100,-100,-100,0,0,100,0.00,40.00,11,4,17,0.00
2013-2-25,51,34,23,-100,-100,-100,0,0,100,0.00,40.00,4,1,7,0.00
2013-2-26,61,39,22,-100,-100,-100,0,0,100,0.00,40.00,11,3,12,0.00
2013-2-27,49,38,25,-100,-100,-100,0,0,100,0.00,40.00,5,2,7,0.00
2013-2-28,53,40,25,-100,-100,-100,0,0,100,0.00,40.00,6,2,6,0.00
2013-3-1,61,44,26,-100,-100,-100,0,0,100,0.00,40.00,6,2,7,0.00
2013-3-2,67,48,29,-100,-100,-100,0,0,100,0.00,40.00,6,2,7,0.00
2013-3-3,76,55,34,-100,-100,-100,0,0,100,0.00,40.00,8,3,9,0.00
2013-3-4,74,57,43,-100,-100,-100,0,0,100,0.00,40.00,12,4,16,0.00
2013-3-5,60,49,40,-100,-100,-100,0,0,100,0.00,40.00,10,5,11,0.00
2013-3-6,73,57,47,-100,-100,-100,0,0,100,0.00,40.00,7,4,9,0.00
2013-3-7,73,59,43,-100,-100,-100,0,0,100,0.00,40.00,8,2,8,0.00
2013-3-8,65,56,47,-100,-100,-100,0,0,100,0.00,40.00,8,3,11,0.00
2013-3-9,54,45,36,-100,-100,-100,0,0,100,0.00,40.00,11,5,15,0.00
2013-3-10,54,41,27,-100,-100,-100,0,0,100,0.00,40.00,6,2,7,0.00
2013-3-11,63,45,28,-100,-100,-100,0,0,100,0.00,40.00,5,2,7,0.00
2013-3-12,69,51,31,-100,-100,-100,0,0,100,0.00,40.00,6,2,7,0.00
2013-3-13,72,57,38,-100,-100,-100,0,0,100,0.00,40.00,10,3,10,0.00
2013-3-14,76,59,39,-100,-100,-100,0,0,100,0.00,40.00,6,2,8,0.00
2013-3-15,80,60,40,-100,-100,-100,0,0,100,0.00,40.00,4,2,7,0.00
2013-3-16,80,62,46,-100,-100,-100,0,0,100,0.00,40.00,7,2,12,0.00
2013-3-17,73,59,45,-100,-100,-100,0,0,100,0.00,40.00,13,3,16,0.00
2013-3-18,73,60,47,-100,-100,-100,0,0,100,0.00,40.00,8,3,9,0.00
2013-3-19,73,59,42,-100,-100,-100,0,0,100,0.00,40.00,8,-55,11,0.00
2013-3-20,67,58,48,-100,-100,-100,0,0,100,0.00,40.00,8,3,9,0.00
2013-3-21,74,60,42,-100,-100,-100,0,0,100,0.00,40.00,11,4,14,0.00
2013-3-22,73,58,45,-100,-100,-100,0,0,100,0.00,40.00,8,4,13,0.00
2013-3-23,69,59,50,-100,-100,-100,0,0,100,0.00,40.00,8,3,15,0.00
2013-3-24,62,48,35,-100,-100,-100,0,0,100,0.00,40.00,7,3,8,0.00
2013-3-25,57,49,37,-100,-100,-100,0,0,100,0.00,40.00,6,3,7,0.00
2013-3-26,68,52,40,-100,-100,-100,0,0,100,0.00,40.00,8,5,9,0.00
2013-3-27,75,56,43,-100,-100,-100,0,0,100,0.00,40.00,7,3,7,0.00
2013-3-28,78,62,45,-100,-100,-100,0,0,100,0.00,40.00,5,2,6,0.00
2013-3-29,79,65,51,-100,-100,-100,0,0,100,0.00,40.00,4,2,7,0.00
2013-3-30,80,63,44,-100,-100,-100,0,0,100,0.00,40.00,7,2,11,0.00
2013-3-31,77,62,50,-100,-100,-100,0,0,100,0.00,40.00,5,2,8,0.00
2013-4-1,80,65,44,-100,-100,-100,0,0,100,0.00,40.00,7,3,9,0.00
2013-4-2,78,62,47,-100,-100,-100,0,0,100,0.00,40.00,10,3,14,0.00
2013-4-3,69,55,41,-100,-100,-100,0,0,100,0.00,40.00,5,1,7,0.00
2013-4-4,76,59,41,-100,-100,-100,0,0,100,0.00,40.00,9,3,9,0.00
2013-4-5,82,66,56,-100,-100,-100,0,0,100,0.00,40.00,8,4,10,0.00
2013-4-6,79,67,53,-100,-100,-100,0,0,100,0.00,40.00,8,3,10,0.00
2013-4-7,80,67,52,-100,-100,-100,0,0,100,0.00,40.00,9,3,10,0.00
2013-4-8,78,65,52,-100,-100,-100,0,0,100,0.00,40.00,11,5,14,0.00
2013-4-9,65,56,47,-100,-100,-100,0,0,100,0.00,40.00,9,3,12,0.00
2013-4-10,62,52,36,-100,-100,-100,0,0,100,0.00,40.00,9,3,13,0.00
2013-4-11,72,50,32,-100,-100,-100,0,0,100,0.00,40.00,5,3,7,0.00
2013-4-12,76,60,45,-100,-100,-100,0,0,100,0.00,40.00,5,2,8,0.00
2013-4-13,79,65,53,-100,-100,-100,0,0,100,0.00,40.00,6,2,9,0.00
2013-4-14,79,67,53,-100,-100,-100,0,0,100,0.00,40.00,7,4,12,0.00
2013-4-15,80,62,50,-100,-100,-100,0,0,100,0.00,40.00,8,4,10,0.00
2013-4-16,82,66,49,-100,-100,-100,0,0,100,0.00,40.00,10,3,13,0.00
2013-4-17,76,63,51,-100,-100,-100,0,0,100,0.00,40.00,13,5,16,0.00
2013-4-18,62,49,38,-100,-100,-100,0,0,100,0.00,40.00,6,2,9,0.00
2013-4-19,65,50,32,-100,-100,-100,0,0,100,0.00,40.00,4,1,7,0.00
2013-4-20,77,57,36,-100,-100,-100,0,0,100,0.00,40.00,10,3,13,0.00
2013-4-21,80,64,42,-100,-100,-100,0,0,100,0.00,40.00,8,2,8,0.00
2013-4-22,85,69,49,-100,-100,-100,0,0,100,0.00,40.00,6,2,9,0.00
2013-4-23,84,67,54,-100,-100,-100,0,0,100,0.00,40.00,9,2,10,0.00
2013-4-24,73,59,40,-100,-100,-100,0,0,100,0.00,40.00,10,4,12,0.00
2013-4-25,83,68,54,-100,-100,-100,0,0,100,0.00,40.00,11,6,13,0.00
2013-4-26,79,65,50,-100,-100,-100,0,0,100,0.00,40.00,4,1,8,0.00
2013-4-27,82,68,54,-100,-100,-100,0,0,100,0.00,40.00,7,2,7,0.00
2013-4-28,82,70,53,-100,-100,-100,0,0,100,0.00,40.00,6,2,6,0.00
2013-4-29,87,66,51,-100,-100,-100,0,0,100,0.00,40.00,5,2,7,0.00
2013-4-30,87,69,54,-100,-100,-100,0,0,100,0.00,40.00,7,2,10,0.00
2013-5-1,83,68,57,-100,-100,-100,0,0,100,0.00,40.00,6,2,10,0.00
2013-5-2,62,54,46,-100,-100,-100,0,0,100,0.00,40.00,8,5,10,0.00
2013-5-3,65,50,37,-100,-100,-100,0,0,100,0.00,40.00,8,4,10,0.00
2013-5-4,80,62,38,-100,-100,-100,0,0,100,0.00,40.00,6,2,9,0.00
2013-5-5,81,70,59,-100,-100,-100,0,0,100,0.00,40.00,11,5,11,0.00
2013-5-6,78,68,59,-100,-100,-100,0,0,100,0.00,40.00,8,-26,11,0.00
2013-5-7,79,67,51,-100,-100,-100,0,0,100,0.00,40.00,7,4,10,0.00
2013-5-8,78,66,53,-100,-100,-100,0,0,100,0.00,40.00,7,3,9,0.00
2013-5-9,77,64,52,-100,-100,-100,0,0,100,0.00,40.00,8,2,9,0.00
2013-5-10,69,62,54,-100,-100,-100,0,0,100,0.00,40.00,10,4,15,0.00
2013-5-11,72,60,47,-100,-100,-100,0,0,100,0.00,40.00,6,2,8,0.00
2013-5-12,76,66,52,-100,-100,-100,0,0,100,0.00,40.00,7,3,9,0.00
2013-5-13,80,66,55,-100,-100,-100,0,0,100,0.00,40.00,6,3,7,0.00
2013-5-14,81,66,54,-100,-100,-100,0,0,100,0.00,40.00,5,2,7,0.00
2013-5-15,87,72,56,-100,-100,-100,0,0,100,0.00,40.00,7,3,11,0.00
2013-5-16,89,68,58,-100,-100,-100,0,0,100,0.00,40.00,6,3,10,0.00
2013-5-17,91,75,58,-100,-100,-100,0,0,100,0.00,40.00,5,2,7,0.00
2013-5-18,86,74,62,-100,-100,-100,0,0,100,0.00,40.00,7,3,10,0.00
2013-5-19,86,74,55,-100,-100,-100,0,0,100,0.00,40.00,8,2,9,0.00
2013-5-20,87,70,54,-100,-100,-100,0,0,100,0.00,40.00,8,4,10,0.00
2013-5-21,83,69,52,-100,-100,-100,0,0,100,0.00,40.00,4,2,7,0.00
2013-5-22,85,70,55,-100,-100,-100,0,0,100,0.00,40.00,5,2,7,0.00
2013-5-23,94,77,60,-100,-100,-100,0,0,100,0.00,40.00,9,3,12,0.00
2013-5-24,91,76,58,-100,-100,-100,0,0,100,0.00,40.00,6,3,10,0.00
2013-5-25,94,82,67,-100,-100,-100,0,0,100,0.00,40.00,6,3,7,0.00
2013-5-26,94,81,59,-100,-100,-100,0,0,100,0.00,40.00,9,2,10,0.00
2013-5-27,89,77,60,-100,-100,-100,0,0,100,0.00,40.00,5,2,7,0.00
2013-5-28,89,76,60,-100,-100,-100,0,0,100,0.00,40.00,10,4,10,0.00
2013-5-29,84,75,64,-100,-100,-100,0,0,100,0.00,40.00,6,2,10,0.00
2013-5-30,89,80,62,-100,-100,-100,0,0,100,0.00,40.00,6,2,8,0.00
2013-5-31,93,78,62,-100,-100,-100,0,0,100,0.00,40.00,7,-36,7,0.00
2013-6-1,92,79,64,-100,-100,-100,0,0,100,0.00,40.00,7,3,8,0.00
2013-6-2,91,76,68,-100,-100,-100,0,0,100,0.00,40.00,11,6,16,0.00
2013-6-3,95,75,62,-100,-100,-100,0,0,100,0.00,40.00,8,-16,16,0.00
2013-6-4,94,80,59,-100,-100,-100,0,0,100,0.00,40.00,5,2,9,0.00
2013-6-5,95,81,67,-100,-100,-100,0,0,100,0.00,40.00,6,3,7,0.00
2013-6-6,91,77,65,-100,-100,-100,0,0,100,0.00,40.00,9,4,12,0.00
2013-6-7,91,76,69,-100,-100,-100,0,0,100,0.00,40.00,7,4,10,0.00
2013-6-8,98,83,62,-100,-100,-100,0,0,100,0.00,40.00,9,3,10,0.00
2013-6-9,94,83,72,-100,-100,-100,0,0,100,0.00,40.00,5,2,7,0.00
2013-6-10,98,86,73,-100,-100,-100,0,0,100,0.00,40.00,6,3,8,0.00
2013-6-11,99,88,70,-100,-100,-100,0,0,100,0.00,40.00,7,3,8,0.00
2013-6-12,99,85,69,-100,-100,-100,0,0,100,0.00,40.00,5,3,8,0.00
2013-6-13,94,84,73,-100,-100,-100,0,0,100,0.00,40.00,7,4,8,0.00
2013-6-14,92,76,68,-100,-100,-100,0,0,100,0.00,40.00,6,3,8,0.00
2013-6-15,94,80,65,-100,-100,-100,0,0,100,0.00,40.00,5,2,7,0.00
2013-6-16,97,84,73,-100,-100,-100,0,0,100,0.00,40.00,4,2,8,0.00
2013-6-17,94,82,69,-100,-100,-100,0,0,100,0.00,40.00,10,3,12,0.00
2013-6-18,96,81,69,-100,-100,-100,0,0,100,0.00,40.00,8,4,9,0.00
2013-6-19,99,85,70,-100,-100,-100,0,0,100,0.00,40.00,6,4,8,0.00
2013-6-20,97,85,73,-100,-100,-100,0,0,100,0.00,40.00,8,3,8,0.00
2013-6-22,98,89,79,-100,-100,-100,0,0,100,0.00,40.00,6,3,8,0.00
2013-6-23,96,83,67,-100,-100,-100,0,0,100,0.00,40.00,4,2,8,0.00
2013-6-24,97,84,68,-100,-100,-100,0,0,100,0.00,40.00,7,2,8,0.00
2013-6-25,95,80,66,-100,-100,-100,0,0,100,0.00,40.00,4,2,7,0.00
2013-6-26,98,84,62,-100,-100,-100,0,0,100,0.00,40.00,5,2,8,0.00
2013-6-27,103,81,65,-100,-100,-100,0,0,100,0.00,40.00,4,3,6,0.00
2013-6-28,95,86,76,-100,-100,-100,0,0,100,0.00,40.00,9,4,10,0.00
2013-6-29,98,87,68,-100,-100,-100,0,0,100,0.00,40.00,6,3,8,0.00
2013-6-30,95,86,73,-100,-100,-100,0,0,100,0.00,40.00,6,3,8,0.00
2013-7-1,81,71,63,-100,-100,-100,0,0,100,0.00,40.00,8,4,12,0.00
2013-7-2,83,72,62,-100,-100,-100,0,0,100,0.00,40.00,5,2,7,0.00
2013-7-3,91,77,65,-100,-100,-100,0,0,100,0.00,40.00,5,2,7,0.00
2013-7-4,93,80,63,-100,-100,-100,0,0,100,0.00,40.00,6,2,7,0.00
2013-7-5,95,82,67,-100,-100,-100,0,0,100,0.00,40.00,5,2,7,0.00
2013-7-6,95,80,70,-100,-100,-100,0,0,100,0.00,40.00,6,2,7,0.00
2013-7-7,97,87,76,-100,-100,-100,0,0,100,0.00,40.00,6,3,8,0.00
2013-7-8,93,76,71,-100,-100,-100,0,0,100,0.00,40.00,6,-64,8,0.00
2013-7-9,93,85,75,-100,-100,-100,0,0,100,0.00,40.00,8,-63,9,0.00
2013-7-10,92,84,71,-100,-100,-100,0,0,100,0.00,40.00,7,3,7,0.00
2013-7-11,94,82,70,-100,-100,-100,0,0,100,0.00,40.00,6,3,8,0.00
2013-7-12,94,80,70,-100,-100,-100,0,0,100,0.00,40.00,9,3,11,0.00
2013-7-13,94,81,68,-100,-100,-100,0,0,100,0.00,40.00,6,3,7,0.00
2013-7-14,95,85,70,-100,-100,-100,0,0,100,0.00,40.00,9,3,9,0.00
2013-7-15,82,72,68,-100,-100,-100,0,0,100,0.00,40.00,10,4,10,0.00
2013-7-16,80,70,62,-100,-100,-100,0,0,100,0.00,40.00,5,3,6,0.00
2013-7-17,76,70,64,-100,-100,-100,0,0,100,0.00,40.00,7,4,12,0.00
2013-7-18,70,64,61,-100,-100,-100,0,0,100,0.00,40.00,3,2,6,0.00
2013-7-19,77,70,64,-100,-100,-100,0,0,100,0.00,40.00,5,2,6,0.00
2013-7-20,85,76,65,-100,-100,-100,0,0,100,0.00,40.00,6,3,8,0.00
2013-7-21,91,77,65,-100,-100,-100,0,0,100,0.00,40.00,5,2,7,0.00
2013-7-22,89,78,65,-100,-100,-100,0,0,100,0.00,40.00,3,2,6,0.00
2013-7-23,88,70,65,-100,-100,-100,0,0,100,0.00,40.00,5,3,6,0.00
2013-7-24,91,76,65,-100,-100,-100,0,0,100,0.00,40.00,5,2,7,0.00
2013-7-25,83,73,64,-100,-100,-100,0,0,100,0.00,40.00,5,2,6,0.00
2013-7-26,88,76,68,-100,-100,-100,0,0,100,0.00,40.00,5,2,8,0.00
2013-7-27,81,73,63,-100,-100,-100,0,0,100,0.00,40.00,5,2,6,0.00
2013-7-28,85,72,64,-100,-100,-100,0,0,100,0.00,40.00,5,2,7,0.00
2013-7-29,90,75,66,-100,-100,-100,0,0,100,0.00,40.00,5,2,7,0.00
2013-7-30,94,78,69,-100,-100,-100,0,0,100,0.00,40.00,5,3,7,0.00
2013-7-31,94,83,69,-100,-100,-100,0,0,100,0.00,40.00,6,2,8,0.00
2013-8-1,91,82,69,-100,-100,-100,0,0,100,0.00,40.00,6,2,7,0.00
2013-8-2,94,83,72,-100,-100,-100,0,0,100,0.00,40.00,4,2,7,0.00
2013-8-3,95,82,70,-100,-100,-100,0,0,100,0.00,40.00,5,2,7,0.00
2013-8-4,95,86,72,-100,-100,-100,0,0,100,0.00,40.00,5,2,7,0.00
2013-8-5,92,79,72,-100,-100,-100,0,0,100,0.00,40.00,6,2,9,0.00
2013-8-6,90,77,66,-100,-100,-100,0,0,100,0.00,40.00,6,2,6,0.00
2013-8-7,87,78,65,-100,-100,-100,0,0,100,0.00,40.00,5,2,9,0.00
2013-8-8,91,77,66,-100,-100,-100,0,0,100,0.00,40.00,6,2,6,0.00
2013-8-9,94,81,65,-100,-100,-100,0,0,100,0.00,40.00,6,2,6,0.00
2013-8-10,80,75,72,-100,-100,-100,0,0,100,0.00,40.00,7,3,8,0.00
2013-8-11,86,72,60,-100,-100,-100,0,0,100,0.00,40.00,7,3,11,0.00
2013-8-12,91,80,72,-100,-100,-100,0,0,100,0.00,40.00,4,2,6,0.00
2013-8-13,87,78,69,-100,-100,-100,0,0,100,0.00,40.00,6,3,7,0.00
2013-8-14,91,79,65,-100,-100,-100,0,0,100,0.00,40.00,7,2,14,0.00
2013-8-15,87,68,65,-100,-100,-100,0,0,100,0.00,40.00,3,1,5,0.00
2013-8-16,92,77,65,-100,-100,-100,0,0,100,0.00,40.00,3,1,6,0.00
2013-8-17,95,78,69,-100,-100,-100,0,0,100,0.00,40.00,6,2,6,0.00
2013-8-18,93,82,69,-100,-100,-100,0,0,100,0.00,40.00,3,2,6,0.00
2013-8-19,94,75,69,-100,-100,-100,0,0,100,0.00,40.00,10,2,13,0.00
2013-8-20,89,77,67,-100,-100,-100,0,0,100,0.00,40.00,5,2,6,0.00
2013-8-21,94,80,65,-100,-100,-100,0,0,100,0.00,40.00,6,2,7,0.00
2013-8-22,87,81,73,-100,-100,-100,0,0,100,0.00,40.00,4,2,7,0.00
2013-8-23,87,78,68,-100,-100,-100,0,0,100,0.00,40.00,13,4,14,0.00
2013-8-24,85,75,68,-100,-100,-100,0,0,100,0.00,40.00,9,4,9,0.00
2013-8-25,88,78,65,-100,-100,-100,0,0,100,0.00,40.00,7,3,8,0.00
2013-8-26,87,78,69,-100,-100,-100,0,0,100,0.00,40.00,7,4,8,0.00
2013-8-27,80,72,67,-100,-100,-100,0,0,100,0.00,40.00,6,3,8,0.00
2013-8-28,76,71,66,-100,-100,-100,0,0,100,0.00,40.00,3,2,5,0.00
2013-8-29,76,70,63,-100,-100,-100,0,0,100,0.00,40.00,5,2,5,0.00
2013-8-30,84,71,62,-100,-100,-100,0,0,100,0.00,40.00,3,1,5,0.00
2013-8-31,93,78,64,-100,-100,-100,0,0,100,0.00,40.00,4,2,6,0.00
2013-9-1,94,80,67,-100,-100,-100,0,0,100,0.00,40.00,5,2,7,0.00
2013-9-2,91,80,69,-100,-100,-100,0,0,100,0.00,40.00,8,4,10,0.00
2013-9-3,87,76,69,-100,-100,-100,0,0,100,0.00,40.00,5,-67,7,0.00
2013-9-4,88,79,66,-100,-100,-100,0,0,100,0.00,40.00,6,2,7,0.00
2013-9-5,88,80,68,-100,-100,-100,0,0,100,0.00,40.00,4,3,8,0.00
2013-9-6,89,79,71,-100,-100,-100,0,0,100,0.00,40.00,5,3,8,0.00
2013-9-7,87,79,70,-100,-100,-100,0,0,100,0.00,40.00,6,3,7,0.00
2013-9-8,87,79,72,-100,-100,-100,0,0,100,0.00,40.00,6,3,7,0.00
2013-9-9,86,74,67,-100,-100,-100,0,0,100,0.00,40.00,8,4,8,0.00
2013-9-10,69,66,62,-100,-100,-100,0,0,100,0.00,40.00,6,2,7,0.00
2013-9-11,74,68,64,-100,-100,-100,0,0,100,0.00,40.00,6,2,9,0.00
2013-9-12,68,64,63,-100,-100,-100,0,0,100,0.00,40.00,4,2,8,0.00
2013-9-13,68,65,62,-100,-100,-100,0,0,100,0.00,40.00,6,3,8,0.00
2013-9-14,80,70,62,-100,-100,-100,0,0,100,0.00,40.00,6,2,7,0.00
2013-9-15,81,69,60,-100,-100,-100,0,0,100,0.00,40.00,4,1,6,0.00
2013-9-16,80,69,61,-100,-100,-100,0,0,100,0.00,40.00,6,3,10,0.00
2013-9-17,80,69,62,-100,-100,-100,0,0,100,0.00,40.00,6,-20,7,0.00
2013-9-18,74,69,65,-100,-100,-100,0,0,100,0.00,40.00,5,3,7,0.00
2013-9-19,82,71,64,-100,-100,-100,0,0,100,0.00,40.00,6,2,10,0.00
2013-9-20,78,68,62,-100,-100,-100,0,0,100,0.00,40.00,6,2,9,0.00
2013-9-21,75,66,58,-100,-100,-100,0,0,100,0.00,40.00,7,3,8,0.00
2013-9-22,82,70,58,-100,-100,-100,0,0,100,0.00,40.00,6,4,8,0.00
2013-9-23,79,70,60,-100,-100,-100,0,0,100,0.00,40.00,5,2,8,0.00
2013-9-24,81,65,50,-100,-100,-100,0,0,100,0.00,40.00,4,1,4,0.00
2013-9-25,87,73,54,-100,-100,-100,0,0,100,0.00,40.00,6,2,7,0.00
2013-9-26,84,72,58,-100,-100,-100,0,0,100,0.00,40.00,5,3,8,0.00
2013-9-27,83,74,63,-100,-100,-100,0,0,100,0.00,40.00,6,2,9,0.00
2013-9-28,72,61,50,-100,-100,-100,0,0,100,0.00,40.00,4,2,6,0.00
2013-9-29,79,64,43,-100,-100,-100,0,0,100,0.00,40.00,4,1,7,0.00
2013-9-30,83,64,48,-100,-100,-100,0,0,100,0.00,40.00,5,2,7,0.00
2013-10-1,83,74,63,-100,-100,-100,0,0,100,0.00,40.00,3,1,7,0.00
2013-10-2,83,66,50,-100,-100,-100,0,0,100,0.00,40.00,4,2,7,0.00
2013-10-3,81,66,52,-100,-100,-100,0,0,100,0.00,40.00,5,3,7,0.00
2013-10-4,80,68,51,-100,-100,-100,0,0,100,0.00,40.00,5,2,9,0.00
2013-10-5,69,58,47,-100,-100,-100,0,0,100,0.00,40.00,5,2,6,0.00
2013-10-6,70,56,41,-100,-100,-100,0,0,100,0.00,40.00,4,1,5,0.00
2013-10-7,74,60,41,-100,-100,-100,0,0,100,0.00,40.00,5,1,5,0.00
2013-10-8,81,63,47,-100,-100,-100,0,0,100,0.00,40.00,4,2,8,0.00
2013-10-9,80,59,50,-100,-100,-100,0,0,100,0.00,40.00,4,2,7,0.00
2013-10-10,77,71,57,-100,-100,-100,0,0,100,0.00,40.00,12,6,15,0.00
2013-10-11,73,58,42,-100,-100,-100,0,0,100,0.00,40.00,5,2,8,0.00
2013-10-12,78,63,46,-100,-100,-100,0,0,100,0.00,40.00,6,2,6,0.00
2013-10-13,78,67,53,-100,-100,-100,0,0,100,0.00,40.00,5,3,7,0.00
2013-10-14,73,65,56,-100,-100,-100,0,0,100,0.00,40.00,4,2,7,0.00
2013-10-15,70,62,55,-100,-100,-100,0,0,100,0.00,40.00,8,3,9,0.00
2013-10-16,72,59,51,-100,-100,-100,0,0,100,0.00,40.00,9,3,9,0.00
2013-10-17,73,54,38,-100,-100,-100,0,0,100,0.00,40.00,5,2,7,0.00
2013-10-18,73,56,40,-100,-100,-100,0,0,100,0.00,40.00,4,2,5,0.00
2013-10-19,69,52,38,-100,-100,-100,0,0,100,0.00,40.00,6,2,8,0.00
2013-10-20,75,57,40,-100,-100,-100,0,0,100,0.00,40.00,5,2,7,0.00
2013-10-21,67,56,42,-100,-100,-100,0,0,100,0.00,40.00,4,2,6,0.00
2013-10-22,70,56,40,-100,-100,-100,0,0,100,0.00,40.00,5,1,7,0.00
2013-10-23,75,54,37,-100,-100,-100,0,0,100,0.00,40.00,6,2,7,0.00
2013-10-24,77,63,46,-100,-100,-100,0,0,100,0.00,40.00,6,2,7,0.00
2013-10-25,76,64,54,-100,-100,-100,0,0,100,0.00,40.00,7,3,9,0.00
2013-10-26,71,59,47,-100,-100,-100,0,0,100,0.00,40.00,4,2,5,0.00
2013-10-27,71,56,45,-100,-100,-100,0,0,100,0.00,40.00,4,2,7,0.00
2013-10-28,74,59,43,-100,-100,-100,0,0,100,0.00,40.00,7,2,8,0.00
2013-10-29,67,62,55,-100,-100,-100,0,0,100,0.00,40.00,4,2,7,0.00
2013-10-30,68,56,43,-100,-100,-100,0,0,100,0.00,40.00,8,2,12,0.00
2013-10-31,65,49,35,-100,-100,-100,0,0,100,0.00,40.00,5,2,7,0.00
2013-11-1,64,50,36,-100,-100,-100,0,0,100,0.00,40.00,5,2,8,0.00
2013-11-2,67,51,34,-100,-100,-100,0,0,100,0.00,40.00,6,2,7,0.00
2013-11-3,70,58,43,-100,-100,-100,0,0,100,0.00,40.00,6,2,7,0.00
2013-11-4,71,58,43,-100,-100,-100,0,0,100,0.00,40.00,6,3,6,0.00
2013-11-5,64,57,47,-100,-100,-100,0,0,100,0.00,40.00,10,3,11,0.00
2013-11-6,58,48,35,-100,-100,-100,0,0,100,0.00,40.00,4,2,5,0.00
2013-11-7,63,51,32,-100,-100,-100,0,0,100,0.00,40.00,5,2,7,0.00
2013-11-8,69,52,39,-100,-100,-100,0,0,100,0.00,40.00,5,2,7,0.00
2013-11-9,71,51,39,-100,-100,-100,0,0,100,0.00,40.00,5,2,6,0.00
2013-11-10,71,54,36,-100,-100,-100,0,0,100,0.00,40.00,5,2,5,0.00
2013-11-11,72,57,41,-100,-100,-100,0,0,100,0.00,40.00,4,1,4,0.00
2013-11-12,58,51,43,-100,-100,-100,0,0,100,0.00,40.00,9,4,11,0.00
2013-11-13,56,48,40,-100,-100,-100,0,0,100,0.00,40.00,8,4,8,0.00
2013-11-14,66,53,40,-100,-100,-100,0,0,100,0.00,40.00,4,2,8,0.00
2013-11-15,67,55,41,-100,-100,-100,0,0,100,0.00,40.00,7,3,9,0.00
2013-11-16,71,58,47,-100,-100,-100,0,0,100,0.00,40.00,7,3,13,0.00
2013-11-17,66,52,43,-100,-100,-100,0,0,100,0.00,40.00,7,2,8,0.00
2013-11-18,66,52,43,-100,-100,-100,0,0,100,0.00,40.00,6,1,6,0.00
2013-11-19,69,54,39,-100,-100,-100,0,0,100,0.00,40.00,4,2,7,0.00
2013-11-20,68,55,40,-100,-100,-100,0,0,100,0.00,40.00,4,2,6,0.00
2013-11-21,69,58,42,-100,-100,-100,0,0,100,0.00,40.00,6,3,6,0.00
2013-11-22,58,43,33,-100,-100,-100,0,0,100,0.00,40.00,11,6,13,0.00
2013-11-23,37,34,30,-100,-100,-100,0,0,100,0.00,40.00,8,5,9,0.00
2013-11-24,33,30,26,-100,-100,-100,0,0,100,0.00,40.00,6,-18,8,0.00
2013-11-25,40,32,30,-100,-100,-100,0,0,100,0.00,40.00,2,1,7,0.00
2013-11-26,49,36,25,-100,-100,-100,0,0,100,0.00,40.00,5,1,7,0.00
2013-11-27,45,37,30,-100,-100,-100,0,0,100,0.00,40.00,5,2,5,0.00
2013-11-28,53,41,24,-100,-100,-100,0,0,100,0.00,40.00,3,1,4,0.00
2013-11-29,60,42,29,-100,-100,-100,0,0,100,0.00,40.00,1,0,2,0.00
2013-11-30,61,44,32,-100,-100,-100,0,0,100,0.00,40.00,2,1,4,0.00
2013-12-1,58,49,43,-100,-100,-100,0,0,100,0.00,40.00,6,2,6,0.00
2013-12-2,63,44,29,-100,-100,-100,0,0,100,0.00,40.00,5,2,5,0.00
2013-12-3,68,50,32,-100,-100,-100,0,0,100,0.00,40.00,7,-22,9,0.00
2013-12-4,65,54,47,-100,-100,-100,0,0,100,0.00,40.00,12,4,15,0.00
2013-12-5,55,48,38,-100,-100,-100,0,0,100,0.00,40.00,6,4,11,0.00
2013-12-6,48,38,30,-100,-100,-100,0,0,100,0.00,40.00,5,2,8,0.00
2013-12-7,36,32,29,-100,-100,-100,0,0,100,0.00,40.00,7,5,10,0.00
2013-12-8,53,38,26,-100,-100,-100,0,0,100,0.00,40.00,7,2,8,0.00
2013-12-9,52,37,23,-100,-100,-100,0,0,100,0.00,40.00,7,-30,9,0.00
2013-12-10,43,30,18,-100,-100,-100,0,0,100,0.00,40.00,4,2,5,0.00
2013-12-11,50,36,25,-100,-100,-100,0,0,100,0.00,40.00,4,1,6,0.00
2013-12-12,43,37,34,-100,-100,-100,0,0,100,0.00,40.00,4,1,4,0.00
2013-12-13,54,39,29,-100,-100,-100,0,0,100,0.00,40.00,11,2,11,0.00
2013-12-14,51,42,29,-100,-100,-100,0,0,100,0.00,40.00,5,2,5,0.00
2013-12-15,54,37,22,-100,-100,-100,0,0,100,0.00,40.00,3,1,5,0.00
2013-12-16,58,38,26,-100,-100,-100,0,0,100,0.00,40.00,4,2,7,0.00
2013-12-17,61,41,30,-100,-100,-100,0,0,100,0.00,40.00,3,1,6,0.00
2013-12-18,58,43,29,-100,-100,-100,0,0,100,0.00,40.00,3,1,6,0.00
2013-12-19,66,48,30,-100,-100,-100,0,0,100,0.00,40.00,7,2,9,0.00
2013-12-20,57,48,37,-100,-100,-100,0,0,100,0.00,40.00,8,3,8,0.00
2013-12-21,43,38,32,-100,-100,-100,0,0,100,0.00,40.00,8,5,11,0.00
2013-12-22,49,40,29,-100,-100,-100,0,0,100,0.00,40.00,5,1,5,0.00
2013-12-23,49,35,22,-100,-100,-100,0,0,100,0.00,40.00,4,1,4,0.00